Time;durP1;ratioP1;P1;durP2;ratioP2;P2;SDS_P1;SDS_P2;PMS_P1;PMS_P2;Temp;Humidity;BMP_temperature;BMP_pressure;BME280_temperature;BME280_humidity;BME280_pressure;Samples;Min_cycle;Max_cycle;Signal;HPM_P1;HPM_P2
2019/07/02 00:02:27;;;;;;;8.3;3.9;;;;;;;;;;;;;
2019/07/02 00:05:02;;;;;;;8;4.3;;;;;;;;;;;;;
2019/07/02 00:07:39;;;;;;;6.9;4;;;;;;;;;;;;;
2019/07/02 00:10:14;;;;;;;6.4;3.5;;;;;;;;;;;;;
2019/07/02 00:12:47;;;;;;;7.5;3.9;;;;;;;;;;;;;
2019/07/02 00:15:21;;;;;;;7.9;4;;;;;;;;;;;;;
2019/07/02 00:18:05;;;;;;;7.3;4.1;;;;;;;;;;;;;
2019/07/02 00:20:39;;;;;;;10;4.4;;;;;;;;;;;;;
2019/07/02 00:23:12;;;;;;;8.5;4.5;;;;;;;;;;;;;
2019/07/02 00:25:48;;;;;;;10.3;4.7;;;;;;;;;;;;;
2019/07/02 00:28:27;;;;;;;9.7;4.4;;;;;;;;;;;;;
2019/07/02 00:31:05;;;;;;;5.7;3.4;;;;;;;;;;;;;
2019/07/02 00:33:40;;;;;;;8.5;3.9;;;;;;;;;;;;;
2019/07/02 00:36:17;;;;;;;7.7;4.1;;;;;;;;;;;;;
2019/07/02 00:38:54;;;;;;;9.2;4.1;;;;;;;;;;;;;
2019/07/02 00:41:31;;;;;;;8.5;3.5;;;;;;;;;;;;;
2019/07/02 00:44:05;;;;;;;13.6;3.9;;;;;;;;;;;;;
2019/07/02 00:46:39;;;;;;;11.4;3.3;;;;;;;;;;;;;
2019/07/02 00:49:16;;;;;;;9.7;3.6;;;;;;;;;;;;;
2019/07/02 00:51:51;;;;;;;7.3;3.1;;;;;;;;;;;;;
2019/07/02 00:54:31;;;;;;;12.7;3.7;;;;;;;;;;;;;
2019/07/02 00:57:10;;;;;;;9.7;3.7;;;;;;;;;;;;;
2019/07/02 00:59:44;;;;;;;10.4;3.9;;;;;;;;;;;;;
2019/07/02 01:02:25;;;;;;;9.4;4;;;;;;;;;;;;;
2019/07/02 01:04:59;;;;;;;10.8;4.2;;;;;;;;;;;;;
2019/07/02 01:07:36;;;;;;;9.6;4.1;;;;;;;;;;;;;
2019/07/02 01:10:14;;;;;;;10.1;4.3;;;;;;;;;;;;;
2019/07/02 01:12:47;;;;;;;9.8;4.7;;;;;;;;;;;;;
2019/07/02 01:15:22;;;;;;;13.1;4.5;;;;;;;;;;;;;
2019/07/02 01:17:59;;;;;;;11.8;5.1;;;;;;;;;;;;;
2019/07/02 01:20:34;;;;;;;11.8;4.7;;;;;;;;;;;;;
2019/07/02 01:23:20;;;;;;;10.5;4.6;;;;;;;;;;;;;
2019/07/02 01:26:02;;;;;;;13.4;4.6;;;;;;;;;;;;;
2019/07/02 01:28:37;;;;;;;14.8;5.7;;;;;;;;;;;;;
2019/07/02 01:31:19;;;;;;;11.9;5.8;;;;;;;;;;;;;
2019/07/02 01:33:52;;;;;;;12.5;5.4;;;;;;;;;;;;;
2019/07/02 01:36:25;;;;;;;14.2;5.7;;;;;;;;;;;;;
2019/07/02 01:38:58;;;;;;;11.8;5.9;;;;;;;;;;;;;
2019/07/02 01:41:32;;;;;;;11.2;5.7;;;;;;;;;;;;;
2019/07/02 01:44:08;;;;;;;13.1;5.7;;;;;;;;;;;;;
2019/07/02 01:46:45;;;;;;;12.8;5.6;;;;;;;;;;;;;
2019/07/02 01:49:20;;;;;;;13.7;5.3;;;;;;;;;;;;;
2019/07/02 01:52:04;;;;;;;13.6;6.1;;;;;;;;;;;;;
2019/07/02 01:54:44;;;;;;;14.4;6.2;;;;;;;;;;;;;
2019/07/02 01:57:19;;;;;;;12.9;6.3;;;;;;;;;;;;;
2019/07/02 01:59:52;;;;;;;11.1;5.9;;;;;;;;;;;;;
2019/07/02 02:02:30;;;;;;;12.8;5.7;;;;;;;;;;;;;
2019/07/02 02:05:05;;;;;;;13.8;5.5;;;;;;;;;;;;;
2019/07/02 02:07:40;;;;;;;11.3;5.5;;;;;;;;;;;;;
2019/07/02 02:10:14;;;;;;;14.1;6.2;;;;;;;;;;;;;
2019/07/02 02:12:52;;;;;;;12.5;5.4;;;;;;;;;;;;;
2019/07/02 02:15:27;;;;;;;11;5.4;;;;;;;;;;;;;
2019/07/02 02:18:01;;;;;;;12.5;5.9;;;;;;;;;;;;;
2019/07/02 02:20:35;;;;;;;13.1;6.2;;;;;;;;;;;;;
2019/07/02 02:23:11;;;;;;;10.5;6.1;;;;;;;;;;;;;
2019/07/02 02:25:48;;;;;;;12.3;5.9;;;;;;;;;;;;;
2019/07/02 02:28:22;;;;;;;12.9;6;;;;;;;;;;;;;
2019/07/02 02:30:56;;;;;;;11.7;5.8;;;;;;;;;;;;;
2019/07/02 02:33:32;;;;;;;13.9;6.2;;;;;;;;;;;;;
2019/07/02 02:36:11;;;;;;;11.5;5.3;;;;;;;;;;;;;
2019/07/02 02:38:44;;;;;;;13.2;5.8;;;;;;;;;;;;;
2019/07/02 02:41:18;;;;;;;11.2;5.2;;;;;;;;;;;;;
2019/07/02 02:43:59;;;;;;;10.2;4.9;;;;;;;;;;;;;
2019/07/02 02:46:33;;;;;;;13.9;5.3;;;;;;;;;;;;;
2019/07/02 02:49:07;;;;;;;14;5.4;;;;;;;;;;;;;
2019/07/02 02:51:43;;;;;;;13;5.7;;;;;;;;;;;;;
2019/07/02 02:54:21;;;;;;;9.3;5.4;;;;;;;;;;;;;
2019/07/02 02:57:03;;;;;;;14.4;6.5;;;;;;;;;;;;;
2019/07/02 02:59:37;;;;;;;14.4;6.4;;;;;;;;;;;;;
2019/07/02 03:02:12;;;;;;;12.6;5.9;;;;;;;;;;;;;
2019/07/02 03:04:45;;;;;;;9.7;4.8;;;;;;;;;;;;;
2019/07/02 03:07:13;;;;;;;9.3;5.1;;;;;;;;;;;;;
2019/07/02 03:09:53;;;;;;;11.2;5.4;;;;;;;;;;;;;
2019/07/02 03:12:33;;;;;;;10.2;4.9;;;;;;;;;;;;;
2019/07/02 03:15:10;;;;;;;11.6;4.8;;;;;;;;;;;;;
2019/07/02 03:17:47;;;;;;;10.3;4.8;;;;;;;;;;;;;
2019/07/02 03:20:25;;;;;;;8.1;4.5;;;;;;;;;;;;;
2019/07/02 03:23:04;;;;;;;11.4;5.1;;;;;;;;;;;;;
2019/07/02 03:25:40;;;;;;;11.2;5.1;;;;;;;;;;;;;
2019/07/02 03:28:13;;;;;;;9.2;5;;;;;;;;;;;;;
2019/07/02 03:31:03;;;;;;;10.6;5.5;;;;;;;;;;;;;
2019/07/02 03:33:51;;;;;;;9.4;4.9;;;;;;;;;;;;;
2019/07/02 03:36:35;;;;;;;8.3;5;;;;;;;;;;;;;
2019/07/02 03:39:36;;;;;;;;;;;;;;;;;;;;;
2019/07/02 03:42:09;;;;;;;7;4.7;;;;;;;;;;;;;
2019/07/02 03:55:10;;;;;;;7.8;4.5;;;;;;;;;;;;;
2019/07/02 03:57:49;;;;;;;10.2;4.7;;;;;;;;;;;;;
2019/07/02 04:00:29;;;;;;;10.2;5.7;;;;;;;;;;;;;
2019/07/02 04:10:32;;;;;;;8.6;4.4;;;;;;;18.14;87.96387;941.8081;;;;
2019/07/02 04:13:51;;;;;;;9.2;4.7;;;;;;;18.21;87.58203;941.9716;;;;
2019/07/02 04:17:14;;;;;;;7.1;4.3;;;;;;;18.29;86.78418;941.9448;;;;
2019/07/02 04:20:32;;;;;;;8.7;4.2;;;;;;;18.43;85.3457;941.8731;;;;
2019/07/02 04:23:48;;;;;;;7.9;4;;;;;;;18.4;86.06152;941.7772;;;;
2019/07/02 04:27:04;;;;;;;7.2;3.1;;;;;;;18.52;84.47949;941.6258;;;;
2019/07/02 04:30:23;;;;;;;6.8;3.8;;;;;;;18.53;85.80859;941.5425;;;;
2019/07/02 04:34:01;;;;;;;8.2;3.8;;;;;;;18.55;84.8125;941.5526;;;;
2019/07/02 04:37:20;;;;;;;7.6;4.1;;;;;;;18.57;86.49023;941.6669;;;;
2019/07/02 04:40:35;;;;;;;7.1;4.3;;;;;;;18.59;85.80762;941.6641;;;;
2019/07/02 04:44:04;;;;;;;8.1;3.9;;;;;;;18.47;85.99219;941.6749;;;;
2019/07/02 04:47:22;;;;;;;6.8;3.8;;;;;;;18.42;84.77441;941.7665;;;;
2019/07/02 04:50:37;;;;;;;7.3;3.3;;;;;;;18.46;85.41113;941.8387;;;;
2019/07/02 04:53:54;;;;;;;6.8;3.8;;;;;;;18.49;86.19531;941.8786;;;;
2019/07/02 04:57:13;;;;;;;8.8;4.2;;;;;;;18.74;85.74512;941.659;;;;
2019/07/02 05:00:31;;;;;;;7.7;4;;;;;;;18.67;85.40625;941.7706;;;;
2019/07/02 05:03:47;;;;;;;10.6;4.1;;;;;;;18.6;85.40234;941.8697;;;;
2019/07/02 05:07:10;;;;;;;7.1;4.2;;;;;;;18.76;85.15527;941.9371;;;;
2019/07/02 05:10:33;;;;;;;7.2;4.3;;;;;;;18.79;86.10254;941.8212;;;;
2019/07/02 05:13:56;;;;;;;7.2;4.3;;;;;;;18.82;84.85156;941.8433;;;;
2019/07/02 05:17:31;;;;;;;7.3;4.1;;;;;;;18.79;85.31152;941.8947;;;;
2019/07/02 05:20:49;;;;;;;6.9;4.2;;;;;;;18.91;84.69531;941.8622;;;;
2019/07/02 05:24:10;;;;;;;9;4.7;;;;;;;19;84.36328;941.7953;;;;
2019/07/02 05:27:32;;;;;;;8.5;4;;;;;;;18.98;84.38184;941.7464;;;;
2019/07/02 05:30:52;;;;;;;8.6;4.4;;;;;;;19.14;85.19336;941.8173;;;;
2019/07/02 05:34:08;;;;;;;10;4;;;;;;;19.12;84.17676;941.7169;;;;
2019/07/02 05:37:23;;;;;;;7.8;4.1;;;;;;;19.17;84.25488;941.7361;;;;
2019/07/02 05:40:42;;;;;;;10;4.2;;;;;;;19.29;84.40723;941.7262;;;;
2019/07/02 05:43:55;;;;;;;12;4.1;;;;;;;19.36;83.6875;941.7514;;;;
2019/07/02 05:47:09;;;;;;;9.1;4;;;;;;;19.2;83.77246;941.6936;;;;
2019/07/02 05:50:23;;;;;;;10.6;3.6;;;;;;;19.19;83.59668;941.5961;;;;
2019/07/02 05:53:41;;;;;;;11.3;3.9;;;;;;;19.35;83.00781;941.6231;;;;
2019/07/02 05:56:59;;;;;;;7;3.3;;;;;;;19.55;81.70703;941.6208;;;;
2019/07/02 06:00:15;;;;;;;8.8;3.6;;;;;;;19.47;82.64746;941.5486;;;;
2019/07/02 06:03:28;;;;;;;7.3;3.6;;;;;;;19.56;81.57813;941.5851;;;;
2019/07/02 06:06:41;;;;;;;8.2;3.5;;;;;;;19.81;80.15527;941.5575;;;;
2019/07/02 06:09:58;;;;;;;10.5;3.8;;;;;;;20.12;78.67285;941.5233;;;;
2019/07/02 06:13:18;;;;;;;6.6;3.4;;;;;;;20.19;79.13867;941.4328;;;;
2019/07/02 06:16:34;;;;;;;10;3.8;;;;;;;20.18;78.70703;941.3342;;;;
2019/07/02 06:19:52;;;;;;;8.1;3.8;;;;;;;20.06;77.9375;941.3977;;;;
2019/07/02 06:23:25;;;;;;;6.5;3.5;;;;;;;20.22;78.32715;941.4289;;;;
2019/07/02 06:26:40;;;;;;;7.7;3.1;;;;;;;20.26;77.28418;941.4114;;;;
2019/07/02 06:29:59;;;;;;;7.5;3.1;;;;;;;20.1;76.73242;941.366;;;;
2019/07/02 06:33:17;;;;;;;8.6;3.1;;;;;;;20.09;77.88379;941.329;;;;
2019/07/02 06:36:35;;;;;;;7;3.2;;;;;;;19.96;77.8623;941.3544;;;;
2019/07/02 06:39:53;;;;;;;6.7;3;;;;;;;20.11;77.94727;941.2913;;;;
2019/07/02 06:43:15;;;;;;;6.5;3.4;;;;;;;20.78;73.40039;941.4045;;;;
2019/07/02 06:46:31;;;;;;;6;2.9;;;;;;;20.7;78.21484;941.3588;;;;
2019/07/02 06:49:45;;;;;;;6.8;2.9;;;;;;;21.07;73.5332;941.4009;;;;
2019/07/02 06:53:03;;;;;;;6.1;2.8;;;;;;;21.19;72.4873;941.3937;;;;
2019/07/02 06:56:19;;;;;;;7.1;2.8;;;;;;;22.16;70.26465;941.4689;;;;
2019/07/02 06:59:37;;;;;;;5;2.5;;;;;;;22.16;73.04297;941.5728;;;;
2019/07/02 07:02:53;;;;;;;5.9;2.6;;;;;;;21.81;72.39063;941.5236;;;;
2019/07/02 07:06:10;;;;;;;6.4;2.5;;;;;;;21.78;72.67578;941.6106;;;;
2019/07/02 07:09:25;;;;;;;5.3;2.6;;;;;;;21.72;71.70508;941.6058;;;;
2019/07/02 07:12:40;;;;;;;6.8;3.1;;;;;;;21.7;75.2998;941.5949;;;;
2019/07/02 07:15:56;;;;;;;6.1;2.6;;;;;;;23.07;71.34863;941.522;;;;
2019/07/02 07:19:16;;;;;;;6.4;2.8;;;;;;;24.23;64.31348;941.5848;;;;
2019/07/02 07:22:37;;;;;;;4.7;2.6;;;;;;;24.42;66.33203;941.5747;;;;
2019/07/02 07:25:55;;;;;;;7.5;2.4;;;;;;;25.99;62.16797;941.5093;;;;
2019/07/02 07:29:11;;;;;;;4.3;2.3;;;;;;;25.06;61.27051;941.4911;;;;
2019/07/02 07:32:25;;;;;;;6.8;2.4;;;;;;;26.98;56.48633;941.4274;;;;
2019/07/02 07:35:44;;;;;;;4;2.1;;;;;;;27.66;57.34277;941.3613;;;;
2019/07/02 07:39:00;;;;;;;5;2.1;;;;;;;26.62;59.21191;941.3911;;;;
2019/07/02 07:42:22;;;;;;;5;2.4;;;;;;;26.51;56.35547;941.4441;;;;
2019/07/02 07:45:44;;;;;;;8;2.5;;;;;;;26.31;56.53125;941.4217;;;;
2019/07/02 07:49:12;;;;;;;5.8;2.4;;;;;;;27.81;54.71387;941.4246;;;;
2019/07/02 07:52:33;;;;;;;8.7;2.6;;;;;;;27.93;54.24219;941.4014;;;;
2019/07/02 07:55:50;;;;;;;4.2;2.2;;;;;;;30.54;46.22949;941.407;;;;
2019/07/02 07:59:06;;;;;;;6.4;2.2;;;;;;;31.03;41.7959;941.358;;;;
2019/07/02 08:02:24;;;;;;;6.6;2.1;;;;;;;28.7;49.65918;941.4394;;;;
2019/07/02 08:05:43;;;;;;;9.7;2.5;;;;;;;27.07;54.38672;941.3011;;;;
2019/07/02 08:09:02;;;;;;;6.4;2.2;;;;;;;27.56;51.87109;941.3149;;;;
2019/07/02 08:12:29;;;;;;;4.5;2.3;;;;;;;27.37;49.82129;941.2794;;;;
2019/07/02 08:15:53;;;;;;;5;2.5;;;;;;;26.2;53.33496;941.2992;;;;
2019/07/02 08:19:09;;;;;;;7.9;2.4;;;;;;;25.52;57.9209;941.2394;;;;
2019/07/02 08:22:40;;;;;;;7.1;3;;;;;;;25.36;58.87988;941.2985;;;;
2019/07/02 08:25:56;;;;;;;7.2;2.6;;;;;;;25.59;62.40625;941.2813;;;;
2019/07/02 08:29:19;;;;;;;7.9;2.5;;;;;;;28.37;50.10938;941.2797;;;;
2019/07/02 08:32:31;;;;;;;5.9;2.3;;;;;;;29.65;45.76953;941.2545;;;;
2019/07/02 08:35:46;;;;;;;7.8;2.4;;;;;;;30.09;45.91016;941.2636;;;;
2019/07/02 08:39:06;;;;;;;5.8;2.4;;;;;;;30.47;43.34473;941.3267;;;;
2019/07/02 08:42:20;;;;;;;5.5;2.3;;;;;;;30.65;43.89941;941.3011;;;;
2019/07/02 08:45:36;;;;;;;7;2.2;;;;;;;30.86;44.30176;941.3567;;;;
2019/07/02 08:49:02;;;;;;;8.2;2.5;;;;;;;29.21;46.76074;941.3311;;;;
2019/07/02 08:52:21;;;;;;;7.3;2.6;;;;;;;28.41;48.83008;941.3417;;;;
2019/07/02 08:55:34;;;;;;;5.2;2.5;;;;;;;27.35;51.34863;941.3616;;;;
2019/07/02 08:58:48;;;;;;;5.9;2.8;;;;;;;26.81;52.86328;941.3487;;;;
2019/07/02 09:02:04;;;;;;;6.2;2.9;;;;;;;26.18;53.66309;941.372;;;;
2019/07/02 09:05:19;;;;;;;7.3;3;;;;;;;25.8;56.17188;941.3853;;;;
2019/07/02 09:08:39;;;;;;;6;2.9;;;;;;;26.95;54.11133;941.4242;;;;
2019/07/02 09:11:54;;;;;;;6.7;2.9;;;;;;;28.12;52.54199;941.4758;;;;
2019/07/02 09:15:13;;;;;;;5.6;2.9;;;;;;;27.77;50.11426;941.3965;;;;
2019/07/02 09:18:31;;;;;;;8.6;2.7;;;;;;;27.44;51.37109;941.4744;;;;
2019/07/02 09:21:45;;;;;;;5.7;3;;;;;;;27.89;51.42188;941.4035;;;;
2019/07/02 09:25:00;;;;;;;9.9;3.2;;;;;;;28.46;52.21191;941.4657;;;;
2019/07/02 09:28:16;;;;;;;6.2;3.1;;;;;;;28.53;49.96094;941.4545;;;;
2019/07/02 09:31:32;;;;;;;7;2.9;;;;;;;28.45;51.08203;941.4368;;;;
2019/07/02 09:34:52;;;;;;;6.8;2.9;;;;;;;28.9;48.60938;941.4246;;;;
2019/07/02 09:38:13;;;;;;;117.8;10.2;;;;;;;28.71;50.86133;941.4079;;;;
2019/07/02 09:41:28;;;;;;;9.1;2.9;;;;;;;28.75;49.31934;941.3309;;;;
2019/07/02 09:44:48;;;;;;;4.3;2.7;;;;;;;28.66;50.18945;941.2763;;;;
2019/07/02 09:48:31;;;;;;;9.5;2.8;;;;;;;28.56;50.60645;941.2791;;;;
2019/07/02 09:51:46;;;;;;;8.5;2.9;;;;;;;28.54;51.60352;941.1859;;;;
2019/07/02 09:55:07;;;;;;;7.8;3.1;;;;;;;28.47;51.72656;941.2797;;;;
2019/07/02 09:58:33;;;;;;;6.2;3.3;;;;;;;27.81;53.26563;941.1273;;;;
2019/07/02 10:01:52;;;;;;;6.6;3;;;;;;;28.1;51.44531;941.1479;;;;
2019/07/02 10:05:06;;;;;;;7.2;3.6;;;;;;;28.15;49.9668;941.1656;;;;
2019/07/02 10:08:30;;;;;;;7.8;3.2;;;;;;;28.31;51.53027;941.1756;;;;
2019/07/02 10:11:45;;;;;;;24.5;4.6;;;;;;;28.27;51.18066;941.1766;;;;
2019/07/02 10:15:01;;;;;;;8.2;3.5;;;;;;;28.32;54.21777;941.2164;;;;
2019/07/02 10:18:21;;;;;;;7.5;3.6;;;;;;;28.37;51.96387;941.205;;;;
2019/07/02 10:21:38;;;;;;;8.5;3.5;;;;;;;28.62;50.94629;941.1551;;;;
2019/07/02 10:24:58;;;;;;;5.8;3;;;;;;;28.97;53.18848;941.1075;;;;
2019/07/02 10:28:17;;;;;;;7;3.6;;;;;;;29.13;50.56348;941.1389;;;;
2019/07/02 10:31:35;;;;;;;5.4;3;;;;;;;28.96;49.72266;941.1664;;;;
2019/07/02 10:34:50;;;;;;;5.9;3.1;;;;;;;28.85;49.77051;941.1273;;;;
2019/07/02 10:38:06;;;;;;;5.2;3.3;;;;;;;28.5;49.92188;941.2104;;;;
2019/07/02 10:41:28;;;;;;;7.1;3.4;;;;;;;27.8;50.75977;941.2162;;;;
2019/07/02 10:44:44;;;;;;;9.6;3.3;;;;;;;27.37;52.8457;941.1799;;;;
2019/07/02 10:48:08;;;;;;;6.5;3.5;;;;;;;27.29;53.32227;941.205;;;;
2019/07/02 10:51:30;;;;;;;7.3;3.5;;;;;;;27.63;56.13965;941.1262;;;;
2019/07/02 10:54:44;;;;;;;6.9;3.5;;;;;;;28.21;52.6123;941.0731;;;;
2019/07/02 10:58:08;;;;;;;6.9;3.4;;;;;;;28.81;52.01563;941.0244;;;;
2019/07/02 11:01:25;;;;;;;7.4;3.2;;;;;;;28.65;49.67676;941.0061;;;;
2019/07/02 11:04:44;;;;;;;9.6;3.5;;;;;;;28.55;50.77051;940.9316;;;;
2019/07/02 11:08:04;;;;;;;6.4;3.2;;;;;;;28.27;51.08496;940.959;;;;
2019/07/02 11:11:24;;;;;;;8.2;3.6;;;;;;;27.66;55.21875;941.0471;;;;
2019/07/02 11:14:38;;;;;;;7.2;3.5;;;;;;;27.06;55.9502;941.0236;;;;
2019/07/02 11:17:53;;;;;;;10.6;4.8;;;;;;;26.48;60.64941;941.0737;;;;
2019/07/02 11:21:14;;;;;;;10.3;5.1;;;;;;;25.88;64.19629;941.152;;;;
2019/07/02 11:24:30;;;;;;;10.5;5.3;;;;;;;25.28;65.84668;941.1936;;;;
2019/07/02 11:27:50;;;;;;;11.9;5.8;;;;;;;25.05;67.0752;941.2626;;;;
2019/07/02 11:31:07;;;;;;;8.8;5.4;;;;;;;24.81;68.93848;941.2225;;;;
2019/07/02 11:34:32;;;;;;;8.7;6;;;;;;;24.49;73.30957;941.135;;;;
2019/07/02 11:37:52;;;;;;;8.7;5.8;;;;;;;25.19;70.67383;941.0101;;;;
2019/07/02 11:41:11;;;;;;;8.7;5.7;;;;;;;25.88;67.83984;941.0164;;;;
2019/07/02 11:44:27;;;;;;;10.8;5.6;;;;;;;26.71;63.65234;940.9247;;;;
2019/07/02 11:47:46;;;;;;;10;5.5;;;;;;;26.75;63.39746;940.8494;;;;
2019/07/02 11:51:11;;;;;;;8;5.3;;;;;;;27.36;62.50098;940.8408;;;;
2019/07/02 11:54:32;;;;;;;10.5;5.4;;;;;;;27.06;61.5332;940.8103;;;;
2019/07/02 11:57:52;;;;;;;7.9;5.7;;;;;;;26.4;62.21191;940.8552;;;;
2019/07/02 12:01:23;;;;;;;8;5.9;;;;;;;27.05;60.04883;940.7684;;;;
2019/07/02 12:04:46;;;;;;;9.1;5.5;;;;;;;27.45;57.41016;940.6917;;;;
2019/07/02 12:08:02;;;;;;;8.1;5.8;;;;;;;27.88;57.51367;940.7237;;;;
2019/07/02 12:11:24;;;;;;;9.8;6.7;;;;;;;27.94;57.74707;940.6443;;;;
2019/07/02 12:14:45;;;;;;;10.3;7;;;;;;;28.34;57.31055;940.6542;;;;
2019/07/02 12:18:11;;;;;;;10.7;7.7;;;;;;;27.93;56.30859;940.7294;;;;
2019/07/02 12:21:32;;;;;;;11;7.9;;;;;;;26.85;57.91504;940.6761;;;;
2019/07/02 12:24:51;;;;;;;12;8.5;;;;;;;26.47;60.11523;940.8005;;;;
2019/07/02 12:28:10;;;;;;;12.7;8.7;;;;;;;26.16;60.58105;940.8178;;;;
2019/07/02 12:31:29;;;;;;;11.6;8.8;;;;;;;25.39;62.5459;940.8281;;;;
2019/07/02 12:34:51;;;;;;;12.6;9.2;;;;;;;25.76;63.10449;940.8387;;;;
2019/07/02 12:38:15;;;;;;;12.1;8.9;;;;;;;26.22;60.7334;940.7419;;;;
2019/07/02 12:41:15;;;;;;;12.5;8.9;;;;;;;26.06;61.15918;940.7678;;;;
2019/07/02 12:43:46;;;;;;;12.3;9.1;;;;;;;26.14;60.73242;940.7208;;;;
2019/07/02 12:46:05;;;;;;;14.7;9;;;;;;;26.71;59.19922;940.6763;;;;
2019/07/02 12:48:28;;;;;;;11.9;8.5;;;;;;;27.16;59.63965;940.7019;;;;
2019/07/02 12:50:55;;;;;;;12.5;9.1;;;;;;;27.56;57.5791;940.5948;;;;
2019/07/02 12:54:24;;;;;;;12;8.8;;;;;;;27.8;57.36035;940.6322;;;;
2019/07/02 12:56:48;;;;;;;11.2;8.1;;;;;;;28.52;54.14551;940.652;;;;
2019/07/02 12:59:20;;;;;;;11.4;8.7;;;;;;;28.08;55.36523;940.5517;;;;
2019/07/02 13:01:52;;;;;;;11.2;9.1;;;;;;;27.73;56.0332;940.6078;;;;
2019/07/02 13:05:05;;;;;;;12.3;9.2;;;;;;;27.65;55.83398;940.573;;;;
2019/07/02 13:07:08;;;;;;;15.3;9.4;;;;;;;27.15;59.04297;940.5042;;;;
2019/07/02 13:09:40;;;;;;;10.6;8.7;;;;;;;27.12;58.375;940.5653;;;;
2019/07/02 13:12:09;;;;;;;13.5;9;;;;;;;27.37;57.44824;940.5427;;;;
2019/07/02 13:14:27;;;;;;;13.1;8.9;;;;;;;27.58;57.60449;940.5531;;;;
2019/07/02 13:16:49;;;;;;;13.8;9;;;;;;;27.32;57.60742;940.5903;;;;
2019/07/02 13:19:33;;;;;;;15.1;10.1;;;;;;;26.75;58.18457;940.588;;;;
2019/07/02 13:21:57;;;;;;;12;9.4;;;;;;;26.43;59.44629;940.563;;;;
2019/07/02 13:24:28;;;;;;;12.8;8.6;;;;;;;26.48;59.91504;940.551;;;;
2019/07/02 13:27:13;;;;;;;12;8.9;;;;;;;26.78;58.20313;940.5257;;;;
2019/07/02 13:29:34;;;;;;;11.1;8.3;;;;;;;27.19;58.74023;940.6329;;;;
2019/07/02 13:32:16;;;;;;;14.2;9.3;;;;;;;26.67;58.12988;940.5686;;;;
2019/07/02 13:34:36;;;;;;;60.2;12.4;;;;;;;26.15;58.84277;940.6309;;;;
2019/07/02 13:37:03;;;;;;;12.5;9.4;;;;;;;26.57;59.27539;940.5014;;;;
2019/07/02 13:39:36;;;;;;;13.9;9.7;;;;;;;26.46;57.86426;940.5233;;;;
2019/07/02 13:41:59;;;;;;;13.2;9.7;;;;;;;26.54;59;940.5545;;;;
2019/07/02 13:44:18;;;;;;;14.8;10.2;;;;;;;26.11;60.31348;940.621;;;;
2019/07/02 13:46:44;;;;;;;11.6;9.7;;;;;;;25.85;60.26758;940.6514;;;;
2019/07/02 13:49:13;;;;;;;13.3;9.6;;;;;;;26.14;59.94141;940.6152;;;;
2019/07/02 13:51:35;;;;;;;13.7;9.9;;;;;;;26.4;59.78613;940.5978;;;;
2019/07/02 13:54:00;;;;;;;13.9;9.2;;;;;;;26.41;59.65723;940.6227;;;;
2019/07/02 13:56:25;;;;;;;13.9;9.9;;;;;;;26.26;59.93262;940.6591;;;;
2019/07/02 13:58:51;;;;;;;14.8;9.3;;;;;;;26.33;59.91797;940.5388;;;;
2019/07/02 14:01:20;;;;;;;13;9.1;;;;;;;26.51;59.10156;940.4155;;;;
2019/07/02 14:03:41;;;;;;;13.3;9.5;;;;;;;26.25;58.94922;940.4944;;;;
2019/07/02 14:06:12;;;;;;;12.5;9.2;;;;;;;26.54;59.3418;940.5636;;;;
2019/07/02 14:08:54;;;;;;;13.9;9.4;;;;;;;26.02;60.05469;940.6075;;;;
2019/07/02 14:11:27;;;;;;;13;9.5;;;;;;;25.85;59.87891;940.5419;;;;
2019/07/02 14:13:49;;;;;;;14;9.9;;;;;;;25.7;61.02832;940.5258;;;;
2019/07/02 14:16:14;;;;;;;12.2;9.6;;;;;;;25.65;61.81152;940.647;;;;
2019/07/02 14:18:38;;;;;;;14.6;10.4;;;;;;;25.35;62.52734;940.6473;;;;
2019/07/02 14:21:03;;;;;;;12.8;10;;;;;;;25.08;63.97656;940.7574;;;;
2019/07/02 14:23:35;;;;;;;34.2;11.9;;;;;;;24.83;66.05273;940.685;;;;
2019/07/02 14:25:53;;;;;;;14.9;11.1;;;;;;;24.67;66.96094;940.6785;;;;
2019/07/02 14:28:19;;;;;;;16.3;11.5;;;;;;;24.49;68.62891;940.6361;;;;
2019/07/02 14:30:44;;;;;;;16.4;11.1;;;;;;;24.57;66.83984;940.6967;;;;
2019/07/02 14:33:13;;;;;;;65.2;13.4;;;;;;;24.61;68.57813;940.7092;;;;
2019/07/02 14:35:39;;;;;;;18.9;10.8;;;;;;;24.63;67.17773;940.6761;;;;
2019/07/02 14:38:07;;;;;;;13.6;9.5;;;;;;;24.64;66.22461;940.5747;;;;
2019/07/02 14:40:31;;;;;;;15.6;10.2;;;;;;;24.72;66.53125;940.5753;;;;
2019/07/02 14:42:56;;;;;;;15.2;10.3;;;;;;;24.55;66.9668;940.6389;;;;
2019/07/02 14:45:21;;;;;;;13.7;10.4;;;;;;;24.39;67.55469;940.5983;;;;
2019/07/02 14:47:52;;;;;;;15.8;10.7;;;;;;;24.42;67.21582;940.5808;;;;
2019/07/02 14:50:15;;;;;;;15.2;11.6;;;;;;;24.27;68.2666;940.6589;;;;
2019/07/02 14:52:41;;;;;;;14.7;10.7;;;;;;;24.11;69.58496;940.6548;;;;
2019/07/02 14:55:08;;;;;;;14.2;10.7;;;;;;;24.27;68.5498;940.6838;;;;
2019/07/02 14:57:31;;;;;;;13.5;10.7;;;;;;;24.33;69.07715;940.6894;;;;
2019/07/02 14:59:57;;;;;;;14.6;10.8;;;;;;;24.42;68.75977;940.6628;;;;
2019/07/02 15:02:21;;;;;;;13.4;10.3;;;;;;;24.72;68.62988;940.5934;;;;
2019/07/02 15:04:48;;;;;;;11.6;10.3;;;;;;;24.95;65.95215;940.6028;;;;
2019/07/02 15:07:12;;;;;;;13.4;10.2;;;;;;;25.33;64.5918;940.5282;;;;
2019/07/02 15:09:37;;;;;;;15;9.7;;;;;;;25.54;62.35156;940.5325;;;;
2019/07/02 15:12:03;;;;;;;13.5;9.5;;;;;;;25.59;62.01855;940.4892;;;;
2019/07/02 15:14:31;;;;;;;11.7;8.4;;;;;;;25.95;60.86035;940.4625;;;;
2019/07/02 15:16:55;;;;;;;14.4;9;;;;;;;25.88;60.18848;940.46;;;;
2019/07/02 15:19:18;;;;;;;11.8;8.6;;;;;;;25.83;60.56152;940.5715;;;;
2019/07/02 15:21:51;;;;;;;13.7;8.5;;;;;;;25.82;59.09375;940.4288;;;;
2019/07/02 15:24:17;;;;;;;10.9;8.3;;;;;;;25.95;59.35938;940.4364;;;;
2019/07/02 15:26:41;;;;;;;10;8;;;;;;;25.9;60.16797;940.4956;;;;
2019/07/02 15:29:14;;;;;;;12.2;8.3;;;;;;;26.08;59.50586;940.5161;;;;
2019/07/02 15:31:46;;;;;;;12.3;7.9;;;;;;;26.02;59.00195;940.469;;;;
2019/07/02 15:34:06;;;;;;;12.1;8;;;;;;;25.76;60.26758;940.5647;;;;
2019/07/02 15:36:33;;;;;;;11.4;8.5;;;;;;;25.58;60.48047;940.5477;;;;
2019/07/02 15:39:10;;;;;;;13.6;8.1;;;;;;;25.23;59.0166;940.4269;;;;
2019/07/02 15:41:37;;;;;;;10.2;8.1;;;;;;;24.93;60.03809;940.3885;;;;
2019/07/02 15:44:00;;;;;;;14.7;8.5;;;;;;;25.05;60.19629;940.4269;;;;
2019/07/02 15:46:29;;;;;;;10.4;8.1;;;;;;;24.78;61.14941;940.4501;;;;
2019/07/02 15:49:05;;;;;;;14.2;8.3;;;;;;;24.61;61.66992;940.5659;;;;
2019/07/02 15:51:40;;;;;;;10.1;8.1;;;;;;;24.34;62.92773;940.5228;;;;
2019/07/02 15:54:11;;;;;;;11.6;7.8;;;;;;;24.48;63.04297;940.4718;;;;
2019/07/02 15:56:44;;;;;;;11.8;7.9;;;;;;;24.45;64.5459;940.4724;;;;
2019/07/02 15:59:08;;;;;;;11.9;8;;;;;;;24.64;63.32422;940.4314;;;;
2019/07/02 16:01:42;;;;;;;12.1;7.8;;;;;;;24.61;62.57617;940.4447;;;;
2019/07/02 16:04:15;;;;;;;13.8;8.3;;;;;;;24.67;60.9707;940.4529;;;;
2019/07/02 16:06:46;;;;;;;11.4;7.8;;;;;;;24.54;60.9873;940.4027;;;;
2019/07/02 16:09:12;;;;;;;10.1;7.3;;;;;;;24.31;61.20313;940.4322;;;;
2019/07/02 16:11:42;;;;;;;9.7;6.4;;;;;;;24.5;60.91211;940.4514;;;;
2019/07/02 16:14:08;;;;;;;11;6.7;;;;;;;24.76;60.12207;940.4433;;;;
2019/07/02 16:16:39;;;;;;;11;7.1;;;;;;;24.67;60.14551;940.4048;;;;
2019/07/02 16:19:03;;;;;;;10.3;7.3;;;;;;;24.7;59.75977;940.4394;;;;
2019/07/02 16:21:31;;;;;;;14.4;6.9;;;;;;;24.59;60.00488;940.3727;;;;
2019/07/02 16:23:56;;;;;;;10.6;6.9;;;;;;;24.58;59.76758;940.4481;;;;
2019/07/02 16:26:24;;;;;;;11.7;7.2;;;;;;;24.68;59.2627;940.4767;;;;
2019/07/02 16:28:51;;;;;;;11.4;6.6;;;;;;;24.64;58.93945;940.4785;;;;
2019/07/02 16:31:16;;;;;;;9.8;6.4;;;;;;;24.64;58.79785;940.3611;;;;
2019/07/02 16:33:41;;;;;;;10.7;6.1;;;;;;;24.64;59.02051;940.3663;;;;
2019/07/02 16:36:14;;;;;;;10.2;5.8;;;;;;;24.5;59.44922;940.3823;;;;
2019/07/02 16:38:36;;;;;;;9.7;5.8;;;;;;;24.47;59.25684;940.3047;;;;
2019/07/02 16:41:03;;;;;;;8.9;5.8;;;;;;;24.31;59.07129;940.2878;;;;
2019/07/02 16:43:38;;;;;;;10.1;5.5;;;;;;;24.32;58.58984;940.2997;;;;
2019/07/02 16:46:01;;;;;;;10.1;5.5;;;;;;;24.23;59.07227;940.2999;;;;
2019/07/02 16:48:27;;;;;;;10.6;5.7;;;;;;;24.32;59.27246;940.2787;;;;
2019/07/02 16:50:57;;;;;;;11;6;;;;;;;24.16;59.09863;940.3317;;;;
2019/07/02 16:53:29;;;;;;;11.4;5.9;;;;;;;24.16;59.31055;940.3278;;;;
2019/07/02 16:55:52;;;;;;;7.4;5.2;;;;;;;24.32;58.58984;940.2477;;;;
2019/07/02 16:58:19;;;;;;;8.7;5.2;;;;;;;24.34;60.68945;940.2573;;;;
2019/07/02 17:00:49;;;;;;;8.5;5.4;;;;;;;24.41;59.21484;940.2341;;;;
2019/07/02 17:03:13;;;;;;;15.5;5.6;;;;;;;24.51;58.07129;940.1077;;;;
2019/07/02 17:05:45;;;;;;;9.7;5.1;;;;;;;24.51;56.91797;940.2067;;;;
2019/07/02 17:08:07;;;;;;;10.6;5.3;;;;;;;24.45;56.85059;940.1597;;;;
2019/07/02 17:10:37;;;;;;;6.2;4.9;;;;;;;24.51;56.91895;940.1456;;;;
2019/07/02 17:13:00;;;;;;;9.6;4.9;;;;;;;24.39;57.51563;940.0942;;;;
2019/07/02 17:15:27;;;;;;;8.2;4.8;;;;;;;24.49;57.4209;940.1931;;;;
2019/07/02 17:17:56;;;;;;;8.8;5.2;;;;;;;24.5;58.87305;940.1297;;;;
2019/07/02 17:20:24;;;;;;;9.6;4.9;;;;;;;24.43;58.50977;940.1359;;;;
2019/07/02 17:22:56;;;;;;;9.4;5.2;;;;;;;24.33;58.61621;940.1633;;;;
2019/07/02 17:25:24;;;;;;;7.9;5.1;;;;;;;24.3;58.83398;940.1689;;;;
2019/07/02 17:27:51;;;;;;;9.7;5.1;;;;;;;24.19;60.00879;940.201;;;;
2019/07/02 17:30:15;;;;;;;9.4;5.3;;;;;;;24.19;59.75098;940.1269;;;;
2019/07/02 17:32:48;;;;;;;9.6;5.1;;;;;;;23.9;59.77051;940.1311;;;;
2019/07/02 17:35:11;;;;;;;7.9;5.2;;;;;;;23.97;59.29785;940.1499;;;;
2019/07/02 17:37:41;;;;;;;8.3;5.1;;;;;;;24.02;60.43359;940.1873;;;;
2019/07/02 17:40:06;;;;;;;8.2;4.7;;;;;;;23.86;59.30664;940.2095;;;;
2019/07/02 17:42:39;;;;;;;8.8;4.9;;;;;;;23.84;59.30371;940.1778;;;;
2019/07/02 17:45:00;;;;;;;8.9;5.2;;;;;;;23.72;59.79395;940.1732;;;;
2019/07/02 17:47:29;;;;;;;9.7;5.5;;;;;;;23.7;59.24902;940.2455;;;;
2019/07/02 17:49:52;;;;;;;8;4.9;;;;;;;23.61;61.03613;940.2505;;;;
2019/07/02 17:52:20;;;;;;;11.5;5.8;;;;;;;23.53;60.49707;940.2522;;;;
2019/07/02 17:54:51;;;;;;;10.4;5.4;;;;;;;23.54;60.67578;940.2902;;;;
2019/07/02 17:57:25;;;;;;;26;5.9;;;;;;;23.47;61.4873;940.2921;;;;
2019/07/02 17:59:55;;;;;;;12.8;5.5;;;;;;;23.36;60.76855;940.22;;;;
2019/07/02 18:02:22;;;;;;;8.5;5.4;;;;;;;23.24;62.1377;940.2296;;;;
2019/07/02 18:04:54;;;;;;;10.6;6.1;;;;;;;23.24;62.94922;940.2986;;;;
2019/07/02 18:07:26;;;;;;;10.3;6.1;;;;;;;22.95;64.83398;940.3301;;;;
2019/07/02 18:09:44;;;;;;;9;6.1;;;;;;;22.88;65.68262;940.3699;;;;
2019/07/02 18:12:12;;;;;;;9.9;6;;;;;;;22.85;65.99512;940.4131;;;;